Nebo, NC (28761)

5:40 PM EDT on July 24, 2016 (GMT -0400)
Highway 70 E, Nebo, North Carolina | | Change Station

Elev 1339 ft 35.71 °N, 81.90 °W | Updated 1 minute ago

Clear
Clear
92.7 °F
Feels Like 102 °F
N
2.7
Wind Variable Wind from SE

Today
High -- | Low -- °F
--% Chance of Precip.
Yesterday
High -- | Low -- °F
Precip. -- in
Pressure 30.07 in
Visibility 10.0 miles
Clouds Clear
Heat Index 102 °F
Dew Point 74 °F
Humidity 54%
Rainfall 0.00 in
Snow Depth Not available.
6:30 AM 8:37 PM
Waning Gibbous, 73% visible
METAR KMRN 242115Z AUTO 14004KT 10SM CLR 34/20 A3007 RMK AO2 T03400202
Pressure 30.07 in
Visibility 10.0 miles
Clouds Clear
Heat Index 102 °F
Dew Point 74 °F
Humidity 54%
Rainfall 0.00 in
Snow Depth Not available.
6:30 AM 8:37 PM
Waning Gibbous, 73% visible
METAR KMRN 242115Z AUTO 14004KT 10SM CLR 34/20 A3007 RMK AO2 T03400202

10-Day Weather Forecast

Almanac

Astronomy

Jul. 24, 2016 Rise Set
Actual Time
Civil Twilight
Nautical Twilight
Astronomical Twilight
Moon
Length of Visible Light
Length of Day
Tomorrow will be .
, % of the Moon is Illuminated

Today's Extremes

State Highs State Lows

Community

WunderPhotos

Upload Photos

1,927,193 photos uploaded!

WunderBlog® & News

Nearby

Air Quality

  Air Quality AQ Index Pollutant
Not available.

Snow Depth

Station Depth Elevation

Earthquake Activity

City Distance Mag. Time & Date
Minimum magnitude displayed is 2.5.

Coastal Water Temperatures

Place Temperature

Stations

Nearby Weather Stations

Station Location Temp. Windchill Dew Point Humidity Wind Precip. Elev Updated Type
                   

Watches & Warnings

There are currently no watches in effect.